Time;durP1;ratioP1;P1;durP2;ratioP2;P2;SDS_P1;SDS_P2;PMS_P1;PMS_P2;Temp;Humidity;BMP_temperature;BMP_pressure;BME280_temperature;BME280_humidity;BME280_pressure;Samples;Min_cycle;Max_cycle;Signal;HPM_P1;HPM_P2
2023/04/30 00:00:51;;;;;;;84.80;32.70;;;;;;;6.84;72.62;99307.11;105590;1257;73650;-70
2023/04/30 00:03:18;;;;;;;92.50;35.30;;;;;;;6.91;72.45;99304.23;105893;1253;62241;-70
2023/04/30 00:05:50;;;;;;;84.90;31.80;;;;;;;6.95;72.04;99305.95;105945;1253;61483;-73
2023/04/30 00:08:17;;;;;;;51.80;18.10;;;;;;;6.91;72.13;99310.34;105813;1256;75278;-76
2023/04/30 00:10:45;;;;;;;52.60;22.00;;;;;;;6.93;72.27;99309.20;105656;1254;68789;-69
2023/04/30 00:13:13;;;;;;;42.90;17.70;;;;;;;6.89;72.49;99303.58;105688;1256;73075;-70
2023/04/30 00:15:40;;;;;;;24.60;12.90;;;;;;;7.00;71.50;99297.07;105621;1253;61245;-71
2023/04/30 00:18:07;;;;;;;23.90;10.00;;;;;;;7.05;70.78;99296.85;105704;1253;62229;-73
2023/04/30 00:20:34;;;;;;;25.60;13.50;;;;;;;7.06;70.40;99295.71;105874;1256;74801;-70
2023/04/30 00:23:01;;;;;;;22.10;11.10;;;;;;;7.09;70.18;99295.49;105914;1254;69961;-71
2023/04/30 00:25:28;;;;;;;21.50;9.90;;;;;;;7.18;69.26;99295.52;105925;1254;72790;-70
2023/04/30 00:27:55;;;;;;;17.80;10.20;;;;;;;7.20;69.03;99290.05;105997;1256;61259;-70
2023/04/30 00:30:22;;;;;;;16.00;9.70;;;;;;;7.23;68.80;99288.18;105934;1254;62267;-70
2023/04/30 00:32:49;;;;;;;26.80;9.70;;;;;;;7.32;67.86;99287.50;105905;1254;72409;-71
2023/04/30 00:35:16;;;;;;;19.90;8.70;;;;;;;7.31;67.81;99287.22;106013;1254;69738;-71
2023/04/30 00:37:43;;;;;;;14.70;8.60;;;;;;;7.35;66.82;99284.09;105901;1254;73707;-71
2023/04/30 00:40:11;;;;;;;14.50;8.20;;;;;;;7.40;66.40;99284.81;105886;1254;61356;-71
2023/04/30 00:42:38;;;;;;;16.00;7.70;;;;;;;7.50;65.32;99286.64;105887;1253;61311;-71
2023/04/30 00:45:06;;;;;;;7.70;6.60;;;;;;;7.59;64.36;99284.55;105834;1254;74586;-71
2023/04/30 00:47:33;;;;;;;11.40;7.60;;;;;;;7.62;63.78;99284.45;105607;1259;68560;-71
2023/04/30 00:50:00;;;;;;;10.80;8.20;;;;;;;7.65;62.34;99282.96;105643;1258;71871;-73
2023/04/30 00:52:27;;;;;;;13.90;7.00;;;;;;;7.71;62.39;99284.92;105570;1253;61218;-71
2023/04/30 00:54:54;;;;;;;20.10;7.00;;;;;;;7.84;61.40;99286.16;105671;1253;61328;-70
2023/04/30 00:57:21;;;;;;;10.40;7.00;;;;;;;7.84;60.52;99286.23;105684;1256;75236;-68
2023/04/30 00:59:48;;;;;;;11.90;8.10;;;;;;;7.93;60.13;99282.47;105713;1254;68633;-70
2023/04/30 01:02:16;;;;;;;11.50;6.30;;;;;;;8.20;58.82;99282.45;105648;1254;72804;-70
2023/04/30 01:04:43;;;;;;;13.90;7.20;;;;;;;8.31;57.74;99282.23;105916;1256;62001;-70
2023/04/30 01:07:10;;;;;;;12.30;7.20;;;;;;;7.99;58.92;99272.45;105898;1254;62283;-71
2023/04/30 01:09:37;;;;;;;14.80;8.40;;;;;;;7.90;59.79;99273.27;105606;1258;75810;-72
2023/04/30 01:12:20;;;;;;;17.30;7.80;;;;;;;7.86;60.27;99271.29;105695;1259;68606;-73
2023/04/30 01:15:22;;;;;;;7.90;7.10;;;;;;;7.84;60.61;99264.64;105694;1259;72999;-73
2023/04/30 01:17:57;;;;;;;11.30;6.90;;;;;;;7.79;60.79;99257.77;105676;1259;61243;-71
2023/04/30 01:20:25;;;;;;;13.80;7.60;;;;;;;7.56;62.00;99253.23;104993;1252;1003509;-70
2023/04/30 01:23:02;;;;;;;10.70;6.80;;;;;;;7.56;62.29;99249.20;105922;1256;74776;-70
2023/04/30 01:25:38;;;;;;;10.80;6.30;;;;;;;7.40;62.97;99240.86;105956;1253;68958;-71
2023/04/30 01:28:10;;;;;;;10.00;6.50;;;;;;;7.35;63.52;99236.29;105604;1260;73373;-69
2023/04/30 01:30:39;;;;;;;10.60;7.00;;;;;;;7.64;61.94;99233.52;105709;1261;61400;-71
2023/04/30 01:33:06;;;;;;;40.90;16.80;;;;;;;7.61;61.69;99235.27;105801;1253;61215;-72
2023/04/30 01:35:52;;;;;;;37.20;16.50;;;;;;;7.17;64.10;99230.52;105802;1256;74564;-75
2023/04/30 01:38:39;;;;;;;39.90;19.40;;;;;;;7.10;65.25;99225.27;105811;1253;68696;-72
2023/04/30 01:41:20;;;;;;;61.20;27.90;;;;;;;6.95;66.03;99220.94;105716;1258;72928;-71
2023/04/30 01:43:59;;;;;;;159.70;63.00;;;;;;;6.83;67.51;99218.56;105910;1253;61988;-71
2023/04/30 01:46:28;;;;;;;138.80;53.40;;;;;;;6.79;69.38;99220.79;105626;1253;61336;-68
2023/04/30 01:48:55;;;;;;;42.30;18.60;;;;;;;6.54;70.39;99222.43;105895;1255;74715;-71
2023/04/30 01:51:47;;;;;;;39.10;19.20;;;;;;;6.57;69.86;99221.59;105857;1256;68864;-73
2023/04/30 01:54:29;;;;;;;31.30;13.70;;;;;;;6.54;70.79;99217.26;105621;1253;73080;-71
2023/04/30 01:57:06;;;;;;;34.40;14.90;;;;;;;6.67;70.39;99221.63;105715;1253;61413;-68
2023/04/30 01:59:35;;;;;;;35.70;17.30;;;;;;;6.59;70.61;99222.79;105612;1253;62469;-71
2023/04/30 02:02:02;;;;;;;34.40;14.80;;;;;;;6.56;71.18;99224.80;105635;1261;75855;-70
2023/04/30 02:04:29;;;;;;;24.20;13.80;;;;;;;6.59;71.16;99226.73;105674;1253;69193;-70
2023/04/30 02:06:57;;;;;;;28.90;13.90;;;;;;;6.52;72.35;99228.09;105815;1257;73329;-75
2023/04/30 02:09:24;;;;;;;24.10;11.10;;;;;;;6.53;73.40;99229.11;105851;1253;61905;-70
2023/04/30 02:11:51;;;;;;;11.70;7.90;;;;;;;6.61;72.01;99234.89;105500;1259;61237;-68
2023/04/30 02:14:18;;;;;;;9.60;7.40;;;;;;;6.66;71.59;99237.27;105851;1257;74844;-71
2023/04/30 02:16:45;;;;;;;14.30;8.40;;;;;;;6.57;72.23;99239.65;105843;1253;68418;-71
2023/04/30 02:19:12;;;;;;;31.50;10.90;;;;;;;6.52;73.62;99238.91;105767;1254;72892;-71
2023/04/30 02:21:39;;;;;;;26.10;12.50;;;;;;;6.55;73.28;99235.30;105692;1254;61392;-70
2023/04/30 02:24:06;;;;;;;21.80;10.50;;;;;;;6.46;74.20;99226.90;105646;1254;61266;-71
2023/04/30 02:26:33;;;;;;;13.80;8.70;;;;;;;6.37;75.64;99221.73;105875;1256;74762;-73
2023/04/30 02:29:00;;;;;;;18.90;9.60;;;;;;;6.43;74.83;99221.49;106805;1254;69407;-72
2023/04/30 02:31:27;;;;;;;16.60;8.40;;;;;;;6.30;75.19;99220.95;107325;1256;73669;-71
2023/04/30 02:33:54;;;;;;;17.80;9.60;;;;;;;6.27;76.20;99224.09;105693;1257;61388;-70
2023/04/30 02:36:20;;;;;;;21.00;9.30;;;;;;;6.37;75.98;99223.23;105737;1253;61251;-71
2023/04/30 02:38:47;;;;;;;16.50;10.50;;;;;;;6.36;76.28;99222.20;105690;1258;75416;-70
2023/04/30 02:41:14;;;;;;;15.70;9.00;;;;;;;6.28;78.66;99217.09;105669;1258;67723;-69
2023/04/30 02:43:41;;;;;;;19.70;10.40;;;;;;;6.12;80.25;99213.09;105655;1257;73732;-71
2023/04/30 02:46:08;;;;;;;33.40;11.90;;;;;;;6.15;80.87;99210.12;105659;1253;61410;-70
2023/04/30 02:48:35;;;;;;;18.70;9.00;;;;;;;6.10;80.06;99206.89;105698;1253;61238;-76
2023/04/30 02:51:03;;;;;;;9.30;6.90;;;;;;;6.07;79.69;99210.06;105796;1258;75297;-71
2023/04/30 02:53:30;;;;;;;8.50;6.90;;;;;;;6.14;79.30;99204.61;105680;1257;68919;-69
2023/04/30 02:55:58;;;;;;;10.10;6.60;;;;;;;6.52;76.38;99206.70;105686;1257;72875;-71
2023/04/30 02:58:25;;;;;;;9.90;7.80;;;;;;;6.60;75.11;99208.56;105728;1253;61905;-71
2023/04/30 03:00:52;;;;;;;10.50;8.30;;;;;;;6.55;74.97;99204.36;105668;1253;61225;-71
2023/04/30 03:03:19;;;;;;;29.10;13.30;;;;;;;6.22;78.17;99196.70;105554;1258;74556;-70
2023/04/30 03:05:46;;;;;;;42.80;19.00;;;;;;;6.41;78.12;99198.96;105819;1253;68926;-71
2023/04/30 03:08:13;;;;;;;37.90;16.80;;;;;;;6.60;75.50;99199.55;105853;1256;73581;-73
2023/04/30 03:10:40;;;;;;;48.30;23.10;;;;;;;6.52;76.35;99193.59;105879;1252;61334;-70
2023/04/30 03:13:07;;;;;;;54.00;20.40;;;;;;;6.50;76.91;99196.05;105548;1253;61213;-71
2023/04/30 03:15:34;;;;;;;72.90;29.10;;;;;;;6.44;77.14;99193.10;105590;1258;75090;-68
2023/04/30 03:18:01;;;;;;;81.10;32.90;;;;;;;6.55;77.15;99189.32;105498;1253;68863;-69
2023/04/30 03:20:28;;;;;;;66.20;28.10;;;;;;;6.88;74.80;99187.08;105923;1254;72692;-70
2023/04/30 03:22:55;;;;;;;70.00;30.40;;;;;;;6.79;75.23;99184.30;105524;1253;61655;-71
2023/04/30 03:25:22;;;;;;;62.90;25.90;;;;;;;6.83;75.32;99182.73;105799;1253;62260;-71
2023/04/30 03:27:48;;;;;;;64.10;24.50;;;;;;;7.08;74.70;99185.30;105845;1255;74610;-72
2023/04/30 03:30:15;;;;;;;73.60;28.00;;;;;;;7.24;74.37;99188.36;105900;1254;69026;-72
2023/04/30 03:32:42;;;;;;;42.80;20.50;;;;;;;7.36;74.17;99185.85;105876;1253;71847;-70
2023/04/30 03:35:10;;;;;;;41.40;20.70;;;;;;;7.61;73.70;99189.33;105849;1252;61309;-69
2023/04/30 03:37:36;;;;;;;45.10;21.40;;;;;;;7.86;72.89;99190.11;105756;1253;61387;-71
2023/04/30 03:40:04;;;;;;;43.20;20.10;;;;;;;8.21;71.40;99190.43;105735;1256;74859;-72
2023/04/30 03:42:31;;;;;;;35.60;18.50;;;;;;;8.40;70.39;99192.80;105639;1253;68729;-70
2023/04/30 03:44:58;;;;;;;40.40;19.10;;;;;;;8.81;68.31;99190.23;105726;1253;72771;-72
2023/04/30 03:47:24;;;;;;;45.70;15.90;;;;;;;9.33;66.97;99192.52;105706;1253;62231;-71
2023/04/30 03:49:53;;;;;;;18.70;11.70;;;;;;;9.69;65.28;99194.59;105616;1253;61289;-74
2023/04/30 03:52:21;;;;;;;21.70;10.00;;;;;;;9.78;62.28;99193.96;105797;1257;74781;-71
2023/04/30 03:54:49;;;;;;;18.10;9.30;;;;;;;9.85;61.37;99193.70;105566;1254;69804;-71
2023/04/30 03:57:16;;;;;;;14.60;7.50;;;;;;;10.16;59.99;99191.52;105930;1256;72982;-72
2023/04/30 03:59:43;;;;;;;7.90;6.10;;;;;;;10.68;57.71;99188.73;105915;1253;61137;-71
2023/04/30 04:02:10;;;;;;;12.50;4.90;;;;;;;11.00;54.94;99188.73;105668;1253;61289;-71
2023/04/30 04:04:38;;;;;;;8.40;5.40;;;;;;;11.31;52.91;99190.91;105915;1256;75827;-70
2023/04/30 04:07:06;;;;;;;6.00;5.00;;;;;;;11.89;50.69;99193.57;105942;1254;68098;-71
2023/04/30 04:09:34;;;;;;;14.00;4.70;;;;;;;12.40;48.52;99196.15;105662;1254;73183;-71
2023/04/30 04:12:03;;;;;;;10.70;4.90;;;;;;;12.94;47.48;99199.54;105865;1255;61248;-74
2023/04/30 04:14:31;;;;;;;16.80;5.30;;;;;;;13.50;45.99;99200.50;105809;1253;61224;-74
2023/04/30 04:16:58;;;;;;;8.90;4.10;;;;;;;13.74;44.65;99197.44;105817;1256;74951;-73
2023/04/30 04:19:26;;;;;;;6.60;4.10;;;;;;;13.96;44.74;99197.35;105832;1253;68856;-72
2023/04/30 04:21:53;;;;;;;6.80;4.70;;;;;;;14.21;43.32;99204.70;105830;1253;71805;-72
2023/04/30 04:24:20;;;;;;;6.10;4.40;;;;;;;13.85;42.95;99209.36;105876;1253;61314;-72
2023/04/30 04:26:47;;;;;;;9.40;5.40;;;;;;;13.61;43.04;99210.39;105832;1253;61251;-71
2023/04/30 04:29:14;;;;;;;13.00;6.70;;;;;;;13.87;42.90;99211.14;105916;1256;75225;-71
2023/04/30 04:31:42;;;;;;;23.80;9.60;;;;;;;14.15;42.46;99214.88;105870;1256;69622;-73
2023/04/30 04:34:10;;;;;;;16.10;8.90;;;;;;;14.17;42.35;99209.77;105907;1253;72893;-76
2023/04/30 04:36:37;;;;;;;20.60;10.20;;;;;;;14.23;42.37;99214.30;105707;1253;61144;-72
2023/04/30 04:39:04;;;;;;;32.80;12.20;;;;;;;14.23;42.20;99209.98;105797;1253;61341;-74
2023/04/30 04:41:32;;;;;;;26.80;11.40;;;;;;;13.60;43.00;99206.73;105787;1257;75771;-71
2023/04/30 04:44:00;;;;;;;19.60;9.30;;;;;;;13.27;44.02;99209.16;105819;1253;69183;-71
2023/04/30 04:46:28;;;;;;;24.40;11.00;;;;;;;13.19;44.54;99209.58;105689;1254;72051;-72
2023/04/30 04:48:55;;;;;;;13.20;6.20;;;;;;;13.44;44.17;99213.54;105753;1253;61319;-71
2023/04/30 04:51:22;;;;;;;15.20;6.70;;;;;;;13.75;44.08;99219.01;105729;1253;61257;-72
2023/04/30 04:53:50;;;;;;;12.00;5.20;;;;;;;13.98;43.50;99218.16;105740;1257;75479;-72
2023/04/30 04:56:17;;;;;;;6.30;4.40;;;;;;;13.82;43.73;99220.08;105812;1253;68767;-72
2023/04/30 04:58:45;;;;;;;13.50;3.70;;;;;;;13.68;43.80;99221.02;105730;1253;74728;-72
2023/04/30 05:01:12;;;;;;;12.90;4.20;;;;;;;13.43;44.42;99220.11;105741;1253;61989;-72
2023/04/30 05:03:39;;;;;;;8.40;4.10;;;;;;;13.59;44.06;99221.02;105816;1253;61228;-71
2023/04/30 05:06:07;;;;;;;6.10;3.70;;;;;;;13.93;43.40;99217.98;105818;1253;73627;-73
2023/04/30 05:08:35;;;;;;;6.20;3.10;;;;;;;14.20;42.52;99219.51;105865;1253;68859;-74
2023/04/30 05:11:02;;;;;;;5.40;3.50;;;;;;;14.36;42.23;99219.40;105846;1253;72221;-76
2023/04/30 05:13:30;;;;;;;7.90;2.90;;;;;;;14.72;42.01;99224.69;105825;1253;62233;-76
2023/04/30 05:15:57;;;;;;;7.60;3.10;;;;;;;15.22;41.02;99224.90;105913;1253;61253;-76
2023/04/30 05:18:23;;;;;;;4.20;3.20;;;;;;;15.30;41.10;99226.09;105838;1257;75389;-73
2023/04/30 05:20:50;;;;;;;5.80;3.40;;;;;;;15.43;40.37;99229.14;105816;1253;68960;-73
2023/04/30 05:23:17;;;;;;;5.40;3.90;;;;;;;15.50;40.35;99224.60;105749;1257;73138;-71
2023/04/30 05:25:45;;;;;;;6.70;4.10;;;;;;;15.58;40.44;99226.84;106231;1253;61338;-73
2023/04/30 05:28:12;;;;;;;4.20;3.10;;;;;;;15.51;40.72;99229.70;108145;1253;61137;-72
2023/04/30 05:30:39;;;;;;;8.40;5.30;;;;;;;15.63;40.77;99225.05;106826;1253;73871;-76
2023/04/30 05:33:05;;;;;;;10.20;5.00;;;;;;;15.78;40.56;99226.55;105760;1253;68761;-74
2023/04/30 05:35:34;;;;;;;12.70;6.50;;;;;;;15.85;40.63;99224.87;105727;1257;73173;-74
2023/04/30 05:38:02;;;;;;;9.70;4.90;;;;;;;16.04;40.46;99229.41;105747;1257;61330;-72
2023/04/30 05:40:29;;;;;;;9.60;4.60;;;;;;;16.26;40.55;99229.45;105599;1253;61335;-72
2023/04/30 05:42:56;;;;;;;13.70;6.00;;;;;;;16.48;40.03;99230.19;105780;1258;75768;-71
2023/04/30 05:45:23;;;;;;;11.40;5.10;;;;;;;16.35;40.26;99235.27;105762;1253;69128;-74
2023/04/30 05:47:50;;;;;;;4.80;3.30;;;;;;;16.32;39.97;99239.37;105775;1253;72938;-72
2023/04/30 05:50:17;;;;;;;6.80;3.80;;;;;;;16.48;40.12;99239.60;105755;1253;61288;-71
2023/04/30 05:52:44;;;;;;;5.40;3.20;;;;;;;16.66;39.36;99239.96;105883;1253;61247;-72
2023/04/30 05:55:11;;;;;;;5.90;3.80;;;;;;;16.93;39.12;99242.27;105987;1257;75515;-73
2023/04/30 05:57:38;;;;;;;5.70;3.10;;;;;;;17.15;38.73;99246.23;105953;1254;68798;-76
2023/04/30 06:00:08;;;;;;;9.20;3.40;;;;;;;17.18;38.15;99248.83;105849;1256;72452;-72
2023/04/30 06:02:38;;;;;;;8.00;4.20;;;;;;;17.47;37.99;99247.15;105784;1254;61280;-73
2023/04/30 06:05:07;;;;;;;5.10;3.00;;;;;;;17.71;37.62;99246.33;105911;1252;61241;-72
2023/04/30 06:07:34;;;;;;;5.30;3.30;;;;;;;17.57;36.92;99244.86;105948;1254;73666;-72
2023/04/30 06:10:01;;;;;;;11.60;3.80;;;;;;;17.52;37.16;99242.58;105655;1254;69860;-73
2023/04/30 06:12:28;;;;;;;7.20;3.40;;;;;;;17.68;37.21;99240.79;105909;1254;72616;-73
2023/04/30 06:14:56;;;;;;;4.20;2.80;;;;;;;17.91;36.27;99241.64;105858;1254;61288;-72
2023/04/30 06:17:23;;;;;;;4.10;2.90;;;;;;;18.06;35.70;99239.23;105926;1256;61246;-72
2023/04/30 06:19:50;;;;;;;3.50;2.70;;;;;;;17.97;35.96;99235.61;105879;1256;74830;-74
2023/04/30 06:22:17;;;;;;;4.20;2.50;;;;;;;18.11;35.61;99233.29;105944;1254;69338;-76
2023/04/30 06:24:44;;;;;;;6.20;3.00;;;;;;;18.18;35.68;99235.63;105935;1256;73208;-73
2023/04/30 06:27:11;;;;;;;3.50;2.40;;;;;;;18.31;34.84;99232.72;105869;1253;61331;-73
2023/04/30 06:29:38;;;;;;;5.80;3.00;;;;;;;17.96;35.41;99231.08;105921;1253;62245;-73
2023/04/30 06:32:06;;;;;;;13.30;3.40;;;;;;;18.36;35.93;99229.29;105650;1262;75395;-72
2023/04/30 06:34:35;;;;;;;5.40;3.30;;;;;;;18.81;34.30;99233.75;105947;1261;68164;-73
2023/04/30 06:37:02;;;;;;;6.00;3.50;;;;;;;19.15;34.13;99236.67;105894;1257;73597;-73
2023/04/30 06:39:29;;;;;;;13.90;4.60;;;;;;;19.30;34.05;99229.80;105768;1254;61373;-74
2023/04/30 06:41:56;;;;;;;7.60;2.30;;;;;;;19.65;33.22;99235.25;105802;1252;61154;-74
2023/04/30 06:44:23;;;;;;;2.80;2.10;;;;;;;19.58;32.85;99236.11;105849;1257;74726;-77
2023/04/30 06:46:51;;;;;;;4.30;2.10;;;;;;;19.69;32.38;99232.73;105624;1259;68824;-73
2023/04/30 06:49:17;;;;;;;3.90;2.50;;;;;;;19.60;32.06;99229.91;105724;1257;73228;-73
2023/04/30 06:51:44;;;;;;;5.60;2.60;;;;;;;19.55;32.13;99227.66;105487;1259;61310;-74
2023/04/30 06:54:11;;;;;;;2.10;1.70;;;;;;;19.49;31.43;99231.11;105739;1259;61225;-70
2023/04/30 06:56:38;;;;;;;4.40;1.90;;;;;;;19.23;31.84;99227.39;105573;1259;74657;-72
2023/04/30 06:59:05;;;;;;;2.20;1.90;;;;;;;19.56;31.43;99223.55;105509;1258;69264;-72
2023/04/30 07:01:31;;;;;;;7.90;2.10;;;;;;;19.56;30.53;99226.23;105598;1259;72666;-74
2023/04/30 07:03:59;;;;;;;7.00;2.10;;;;;;;19.91;30.02;99225.30;105516;1259;61374;-75
2023/04/30 07:06:26;;;;;;;7.90;2.80;;;;;;;19.78;30.71;99225.75;105331;1257;61235;-72
2023/04/30 07:08:53;;;;;;;6.10;1.80;;;;;;;19.31;30.38;99221.27;105484;1262;75163;-72
2023/04/30 07:11:20;;;;;;;7.10;2.00;;;;;;;19.23;30.95;99224.62;105335;1257;69170;-74
2023/04/30 07:13:47;;;;;;;5.80;2.20;;;;;;;19.32;31.00;99221.84;105572;1260;73567;-73
2023/04/30 07:16:15;;;;;;;3.20;1.70;;;;;;;19.32;30.75;99225.86;105591;1257;61528;-73
2023/04/30 07:18:43;;;;;;;4.20;1.80;;;;;;;19.31;30.84;99227.68;105690;1253;61354;-73
2023/04/30 07:21:10;;;;;;;7.20;2.10;;;;;;;19.42;30.26;99223.55;105768;1256;74758;-74
2023/04/30 07:23:36;;;;;;;2.00;1.80;;;;;;;19.70;30.45;99219.84;105801;1253;68725;-75
2023/04/30 07:26:04;;;;;;;3.50;1.80;;;;;;;19.64;30.28;99215.62;105875;1256;72725;-74
2023/04/30 07:28:31;;;;;;;2.40;1.80;;;;;;;19.52;30.58;99203.42;105920;1256;62263;-74
2023/04/30 07:30:59;;;;;;;5.50;2.00;;;;;;;19.40;29.54;99207.01;105889;1254;61259;-75
2023/04/30 07:33:25;;;;;;;28.10;3.30;;;;;;;19.35;29.09;99206.63;106099;1256;74996;-73
2023/04/30 07:35:54;;;;;;;10.30;2.40;;;;;;;19.64;29.93;99205.75;105889;1257;68319;-76
2023/04/30 07:38:22;;;;;;;8.10;2.20;;;;;;;19.60;30.14;99200.94;105869;1253;72445;-72
2023/04/30 07:40:49;;;;;;;5.30;2.00;;;;;;;19.55;29.61;99201.79;105738;1253;62234;-72
2023/04/30 07:43:16;;;;;;;3.30;1.90;;;;;;;19.34;30.35;99193.46;105890;1252;61243;-72
2023/04/30 07:45:43;;;;;;;19.10;3.40;;;;;;;19.34;30.39;99187.92;105905;1256;75648;-75
2023/04/30 07:48:10;;;;;;;2.60;1.90;;;;;;;19.55;29.74;99188.39;105977;1257;69503;-71
2023/04/30 07:50:37;;;;;;;6.70;2.30;;;;;;;19.59;29.88;99184.81;105984;1257;72964;-74
2023/04/30 07:53:23;;;;;;;2.20;1.70;;;;;;;19.77;30.13;99182.67;106038;1254;61285;-72
2023/04/30 07:55:50;;;;;;;5.70;3.50;;;;;;;20.11;29.68;99181.75;105869;1254;61419;-74
2023/04/30 07:58:16;;;;;;;4.60;3.20;;;;;;;20.28;29.63;99182.08;106118;1257;75677;-75
2023/04/30 08:00:43;;;;;;;2.20;1.80;;;;;;;20.18;28.96;99180.02;106011;1256;69679;-74
2023/04/30 08:03:11;;;;;;;3.60;1.60;;;;;;;19.47;29.81;99177.08;105903;1264;73470;-75
2023/04/30 08:05:38;;;;;;;9.40;2.30;;;;;;;18.94;30.60;99169.25;105964;1254;61310;-71
2023/04/30 08:08:05;;;;;;;6.10;2.30;;;;;;;18.70;30.89;99162.06;105920;1257;61573;-75
2023/04/30 08:10:32;;;;;;;5.00;2.30;;;;;;;18.78;30.62;99174.09;106084;1256;75561;-73
2023/04/30 08:12:58;;;;;;;5.70;1.90;;;;;;;19.01;29.81;99169.20;105969;1256;67804;-75
2023/04/30 08:15:25;;;;;;;2.40;2.00;;;;;;;19.09;30.19;99165.81;105887;1256;73523;-73
2023/04/30 08:17:54;;;;;;;2.70;2.00;;;;;;;19.38;29.67;99163.85;105954;1253;61336;-75
2023/04/30 08:20:22;;;;;;;5.40;1.90;;;;;;;19.25;28.91;99164.66;105907;1257;61347;-76
2023/04/30 08:22:49;;;;;;;;;;;;;;;19.71;28.70;99163.63;106158;1257;74972;-76
2023/04/30 08:25:16;;;;;;;3.10;2.00;;;;;;;19.73;28.13;99165.90;105794;1259;69632;-72
2023/04/30 08:27:43;;;;;;;2.20;2.00;;;;;;;20.17;27.73;99164.65;105985;1257;73334;-74
2023/04/30 08:30:10;;;;;;;6.30;1.80;;;;;;;20.20;28.23;99161.73;106497;1253;61225;-73
2023/04/30 08:32:37;;;;;;;3.20;2.30;;;;;;;20.41;28.22;99148.55;107403;1253;61209;-73
2023/04/30 08:35:05;;;;;;;4.70;2.90;;;;;;;20.22;28.05;99158.23;106318;1259;73549;-77
2023/04/30 08:37:32;;;;;;;1.90;1.70;;;;;;;20.12;28.04;99147.55;106066;1253;69332;-76
2023/04/30 08:39:59;;;;;;;2.50;2.00;;;;;;;20.11;28.64;99148.36;106024;1258;72974;-73
2023/04/30 08:42:35;;;;;;;1.90;1.70;;;;;;;20.36;28.52;99162.70;105075;1258;1002997;-74
2023/04/30 08:45:02;;;;;;;10.40;1.90;;;;;;;20.97;27.81;99160.92;105857;1257;62243;-71
2023/04/30 08:47:29;;;;;;;2.10;1.60;;;;;;;20.53;27.70;99160.95;105896;1257;75552;-74
2023/04/30 08:49:56;;;;;;;6.30;1.80;;;;;;;20.54;28.24;99159.83;105776;1257;68711;-76
2023/04/30 08:52:23;;;;;;;4.40;2.40;;;;;;;20.80;28.51;99156.06;106019;1255;72852;-77
2023/04/30 08:54:50;;;;;;;1.80;1.40;;;;;;;21.62;27.23;99151.43;105959;1253;61294;-77
2023/04/30 08:57:17;;;;;;;2.00;1.50;;;;;;;22.05;26.76;99150.02;105812;1262;61125;-74
2023/04/30 08:59:47;;;;;;;7.10;1.50;;;;;;;21.76;26.64;99146.86;105810;1254;75724;-77
2023/04/30 09:02:14;;;;;;;3.80;1.60;;;;;;;20.52;27.44;99141.82;105672;1259;180393;-74
2023/04/30 09:04:41;;;;;;;10.80;2.00;;;;;;;20.32;27.70;99143.45;105931;1254;72306;-77
2023/04/30 09:07:10;;;;;;;9.70;2.10;;;;;;;20.68;27.31;99141.27;105923;1257;61203;-74
2023/04/30 09:09:37;;;;;;;6.50;2.00;;;;;;;20.85;27.25;99140.85;105768;1259;61296;-73
2023/04/30 09:12:16;;;;;;;2.90;2.00;;;;;;;21.05;27.10;99139.52;105767;1258;74953;-74
2023/04/30 09:14:59;;;;;;;2.80;1.20;;;;;;;21.34;26.96;99138.21;105778;1253;69370;-74
2023/04/30 09:17:25;;;;;;;6.10;2.00;;;;;;;21.40;26.71;99138.89;106012;1258;74054;-75
2023/04/30 09:19:52;;;;;;;6.60;1.70;;;;;;;22.07;26.45;99141.89;106023;1254;61227;-73
2023/04/30 09:22:21;;;;;;;2.30;1.50;;;;;;;21.84;26.15;99137.29;106041;1257;61368;-77
2023/04/30 09:24:49;;;;;;;3.80;1.50;;;;;;;21.32;25.71;99133.83;105970;1258;74603;-78
2023/04/30 09:27:20;;;;;;;2.20;1.50;;;;;;;20.97;26.56;99131.86;106088;1257;68611;-77
2023/04/30 09:29:47;;;;;;;2.00;1.50;;;;;;;21.22;25.89;99127.71;106015;1254;72072;-76
2023/04/30 09:32:14;;;;;;;6.80;1.80;;;;;;;21.11;26.23;99120.59;106164;1259;61475;-75
2023/04/30 09:34:42;;;;;;;2.60;1.40;;;;;;;21.10;26.72;99124.15;105857;1254;61525;-75
2023/04/30 09:37:10;;;;;;;2.00;1.60;;;;;;;21.49;26.07;99125.23;106004;1257;75736;-75
2023/04/30 09:39:48;;;;;;;10.30;1.80;;;;;;;21.86;25.81;99121.84;106067;1257;68911;-79
2023/04/30 09:42:15;;;;;;;5.90;1.60;;;;;;;22.39;25.54;99126.83;106025;1253;71978;-75
2023/04/30 09:44:42;;;;;;;5.00;2.20;;;;;;;22.82;24.65;99122.05;105811;1259;61317;-72
2023/04/30 09:47:17;;;;;;;3.60;1.50;;;;;;;22.42;24.87;99127.17;105754;1254;61600;-74
2023/04/30 09:49:46;;;;;;;2.30;1.70;;;;;;;22.95;25.13;99118.76;105741;1257;75538;-72
2023/04/30 09:52:14;;;;;;;6.70;2.00;;;;;;;23.29;24.44;99109.58;105872;1257;68793;-71
2023/04/30 09:54:42;;;;;;;3.20;2.20;;;;;;;23.47;24.89;99103.88;105754;1257;73159;-75
2023/04/30 09:57:10;;;;;;;1.90;1.40;;;;;;;22.97;24.74;99099.99;105835;1259;61144;-73
2023/04/30 09:59:38;;;;;;;4.10;2.00;;;;;;;22.94;25.40;99097.86;105774;1257;61251;-73
2023/04/30 10:02:06;;;;;;;4.80;1.80;;;;;;;22.68;24.87;99101.58;105813;1256;75168;-73
2023/04/30 10:04:35;;;;;;;3.20;1.20;;;;;;;22.57;25.16;99100.45;105943;1256;69232;-73
2023/04/30 10:07:14;;;;;;;3.10;1.60;;;;;;;22.41;25.84;99089.64;105605;1257;73730;-74
2023/04/30 10:09:54;;;;;;;5.60;1.60;;;;;;;22.10;26.04;99090.59;106147;1253;61257;-72
2023/04/30 10:12:23;;;;;;;3.20;1.50;;;;;;;22.22;26.72;99087.31;105952;1254;61253;-74
2023/04/30 10:14:56;;;;;;;13.70;2.80;;;;;;;22.65;26.20;99090.04;106138;1254;74777;-73
2023/04/30 10:17:26;;;;;;;9.80;2.20;;;;;;;22.24;26.71;99088.98;105986;1256;68075;-74
2023/04/30 10:19:54;;;;;;;5.30;1.70;;;;;;;18.06;30.84;99067.98;105883;1256;72953;-73
2023/04/30 10:22:22;;;;;;;2.20;1.70;;;;;;;17.12;32.54;99065.05;105979;1256;61365;-76
2023/04/30 10:24:49;;;;;;;4.00;2.20;;;;;;;16.76;31.58;99061.39;105675;1254;61353;-74
2023/04/30 10:27:15;;;;;;;4.30;2.50;;;;;;;16.99;31.62;99067.54;106004;1257;75225;-74
2023/04/30 10:29:42;;;;;;;11.30;3.30;;;;;;;17.75;30.59;99065.02;105657;1254;68738;-75
2023/04/30 10:32:11;;;;;;;9.70;7.40;;;;;;;18.03;30.22;99058.62;105608;1257;72892;-74
2023/04/30 10:34:54;;;;;;;10.10;6.40;;;;;;;17.97;29.96;99058.73;105634;1257;61375;-74
2023/04/30 10:37:31;;;;;;;17.40;8.40;;;;;;;18.34;30.15;99047.95;105743;1252;61238;-74
2023/04/30 10:39:58;;;;;;;5.20;3.40;;;;;;;18.27;30.59;99053.14;105602;1254;74465;-74
2023/04/30 10:42:25;;;;;;;8.80;6.30;;;;;;;18.71;30.20;99052.70;105792;1257;69828;-77
2023/04/30 10:44:52;;;;;;;7.70;6.50;;;;;;;18.47;29.75;99047.07;106022;1257;72458;-73
2023/04/30 10:47:20;;;;;;;4.90;1.90;;;;;;;17.47;31.11;99049.14;106019;1254;61336;-73
2023/04/30 10:49:48;;;;;;;11.30;2.10;;;;;;;17.48;31.42;99042.50;106031;1256;61201;-75
2023/04/30 10:52:26;;;;;;;5.90;3.00;;;;;;;18.06;31.00;99048.90;105951;1257;74615;-76
2023/04/30 10:54:53;;;;;;;;;;;;;;;18.61;30.55;99054.42;105716;1254;69771;-76
2023/04/30 10:57:20;;;;;;;2.90;2.60;;;;;;;19.14;29.08;99057.78;106157;1256;72710;-74
2023/04/30 11:00:07;;;;;;;4.20;2.60;;;;;;;19.02;28.59;99056.16;106089;1254;61275;-75
2023/04/30 11:02:42;;;;;;;3.00;2.30;;;;;;;18.74;28.89;99057.14;105977;1255;61460;-72
2023/04/30 11:05:17;;;;;;;3.20;2.30;;;;;;;18.55;28.74;99048.95;105751;1254;74698;-74
2023/04/30 11:07:48;;;;;;;5.30;2.10;;;;;;;18.23;28.73;99050.05;106190;1254;69690;-74
2023/04/30 11:10:16;;;;;;;7.60;2.30;;;;;;;18.30;29.44;99051.17;105801;1256;73450;-78
2023/04/30 11:12:46;;;;;;;5.40;2.20;;;;;;;18.61;29.20;99046.58;105796;1254;61171;-75
2023/04/30 11:15:15;;;;;;;3.00;1.80;;;;;;;18.58;29.31;99049.83;105835;1255;61274;-77
2023/04/30 11:17:45;;;;;;;4.00;2.30;;;;;;;18.88;29.25;99049.79;105916;1257;73254;-74
2023/04/30 11:20:13;;;;;;;7.10;3.80;;;;;;;19.34;29.28;99049.85;105824;1258;68763;-78
2023/04/30 11:22:40;;;;;;;4.80;2.80;;;;;;;19.53;28.52;99052.91;105690;1254;73910;-75
2023/04/30 11:25:14;;;;;;;9.50;5.80;;;;;;;19.74;28.44;99054.00;105741;1254;61265;-74
2023/04/30 11:27:43;;;;;;;6.00;2.70;;;;;;;20.00;28.19;99049.09;105634;1254;61353;-74